Terminal Aerodrome Forecast
Issued by NWS Louisville, KY

Home | Current Version | Previous Version | Text Only | Print | Product List | Glossary On
Versions: 1 2 3 4 5 6 7 8 9 10 11 12 13 14 15 16 17
646
FTUS43 KLMK 211438 AAA
TAFBWG
TAF AMD
KBWG 211438Z 2115/2212 02007KT P6SM BKN028 BKN070
     FM211700 03008KT P6SM OVC080
     FM212200 36006KT P6SM VCSH OVC070
     FM220300 02008KT P6SM BKN120=

USA.gov is the U.S. government's official web portal to all federal, state and local government web resources and services.